Time;durP1;ratioP1;P1;durP2;ratioP2;P2;SDS_P1;SDS_P2;PMS_P1;PMS_P2;Temp;Humidity;BMP_temperature;BMP_pressure;BME280_temperature;BME280_humidity;BME280_pressure;Samples;Min_cycle;Max_cycle;Signal;HPM_P1;HPM_P2
2023/03/30 00:01:19;;;;;;;2.60;1.70;;;;;;;3.26;nan;-23907.28;5031338;28;20601;-72
2023/03/30 00:03:45;;;;;;;2.37;2.03;;;;;;;2.90;nan;-23897.00;5031347;28;20178;-68
2023/03/30 00:06:14;;;;;;;5.83;2.73;;;;;;;2.73;nan;-23892.31;5030982;28;20625;-70
2023/03/30 00:08:39;;;;;;;6.20;3.43;;;;;;;2.85;nan;-23895.59;5031729;28;20301;-72
2023/03/30 00:11:10;;;;;;;4.43;2.53;;;;;;;2.83;nan;-23895.16;5030827;28;20696;-68
2023/03/30 00:13:37;;;;;;;4.97;2.77;;;;;;;2.72;nan;-23891.88;5031136;28;20563;-68
2023/03/30 00:16:05;;;;;;;2.80;2.30;;;;;;;2.47;nan;-23885.03;5031349;28;20188;-69
2023/03/30 00:18:30;;;;;;;2.27;2.00;;;;;;;2.50;nan;-23885.72;5030896;28;20599;-69
2023/03/30 00:20:57;;;;;;;6.00;2.93;;;;;;;2.60;nan;-23888.72;5031431;28;20197;-71
2023/03/30 00:23:22;;;;;;;2.90;1.90;;;;;;;2.09;nan;-23874.16;5031515;28;20182;-69
2023/03/30 00:25:48;;;;;;;3.77;1.97;;;;;;;2.83;nan;-23895.16;5031283;28;20227;-70
2023/03/30 00:28:13;;;;;;;4.07;2.70;;;;;;;2.82;nan;-23894.88;5031398;28;20554;-72
2023/03/30 00:30:39;;;;;;;2.50;1.90;;;;;;;2.34;nan;-23881.31;5031456;28;20528;-71
2023/03/30 00:33:04;;;;;;;4.97;2.13;;;;;;;2.46;nan;-23884.75;5031348;28;20695;-70
2023/03/30 00:35:30;;;;;;;1.97;1.87;;;;;;;2.15;nan;-23875.88;5032282;28;20175;-70
2023/03/30 00:38:00;;;;;;;2.70;2.50;;;;;;;2.33;nan;-23881.03;5031401;28;20213;-69
2023/03/30 00:40:26;;;;;;;3.40;2.50;;;;;;;1.93;nan;-23869.59;5031941;28;20186;-70
2023/03/30 00:42:57;;;;;;;3.00;2.53;;;;;;;2.22;nan;-23877.88;5031607;28;20200;-70
2023/03/30 00:45:28;;;;;;;2.37;2.17;;;;;;;2.31;nan;-23880.31;5031199;28;20194;-71
2023/03/30 00:47:59;;;;;;;3.10;1.87;;;;;;;2.20;nan;-23877.31;5030215;28;20209;-72
2023/03/30 00:50:33;;;;;;;2.57;2.37;;;;;;;2.15;nan;-23875.88;5031201;28;20273;-69
2023/03/30 00:53:02;;;;;;;3.97;2.53;;;;;;;2.46;nan;-23884.75;5011842;28;20201;-69
2023/03/30 00:55:30;;;;;;;3.13;2.20;;;;;;;2.36;nan;-23881.88;5017151;28;20320;-69
2023/03/30 00:57:56;;;;;;;1.63;1.40;;;;;;;2.55;nan;-23887.16;5034766;28;20209;-69
2023/03/30 01:00:22;;;;;;;2.77;2.20;;;;;;;2.71;nan;-23891.59;5034634;28;20178;-67
2023/03/30 01:02:57;;;;;;;1.83;1.57;;;;;;;2.44;nan;-23884.16;5034829;28;20172;-69
2023/03/30 01:05:24;;;;;;;2.10;1.90;;;;;;;2.52;nan;-23886.44;5034494;28;20181;-68
2023/03/30 01:07:50;;;;;;;2.40;1.90;;;;;;;2.36;nan;-23881.88;5034487;28;20210;-68
2023/03/30 01:10:16;;;;;;;2.83;2.50;;;;;;;1.89;nan;-23868.47;5034601;28;20269;-69
2023/03/30 01:12:42;;;;;;;4.03;2.43;;;;;;;1.86;nan;-23867.75;5034387;28;20178;-70
2023/03/30 01:15:09;;;;;;;4.23;2.50;;;;;;;2.22;nan;-23877.88;5034600;28;20178;-73
2023/03/30 01:17:43;;;;;;;2.20;1.80;;;;;;;1.98;nan;-23871.19;5034278;28;20288;-68
2023/03/30 01:20:27;;;;;;;3.97;2.43;;;;;;;2.24;nan;-23878.47;5034562;28;20189;-71
2023/03/30 01:22:52;;;;;;;2.33;2.13;;;;;;;2.19;nan;-23877.16;5033846;28;20204;-71
2023/03/30 01:25:27;;;;;;;4.23;2.20;;;;;;;2.17;nan;-23876.47;5034328;28;20194;-71
2023/03/30 01:28:16;;;;;;;2.77;1.73;;;;;;;2.07;nan;-23873.59;5034641;28;20190;-73
2023/03/30 01:31:09;;;;;;;2.50;2.30;;;;;;;2.04;nan;-23872.88;5035062;28;20280;-67
2023/03/30 01:33:53;;;;;;;5.77;2.40;;;;;;;2.08;nan;-23874.03;5014248;28;20660;-68
2023/03/30 01:36:31;;;;;;;4.13;2.17;;;;;;;2.11;nan;-23874.75;5014617;28;20636;-70
2023/03/30 01:39:18;;;;;;;2.70;2.37;;;;;;;2.20;nan;-23877.47;5014436;28;20230;-70
2023/03/30 01:42:21;;;;;;;2.63;2.30;;;;;;;2.12;nan;-23875.03;5014244;28;20198;-69
2023/03/30 01:44:52;;;;;;;2.03;1.90;;;;;;;2.06;nan;-23873.31;5014675;28;20164;-68
2023/03/30 01:47:39;;;;;;;3.67;2.43;;;;;;;2.12;nan;-23875.03;5014907;28;20187;-73
2023/03/30 01:50:11;;;;;;;3.47;2.20;;;;;;;2.00;nan;-23871.75;5014403;28;20187;-69
2023/03/30 01:52:55;;;;;;;3.07;2.30;;;;;;;1.59;nan;-23860.03;5014282;28;20180;-70
2023/03/30 01:55:26;;;;;;;2.10;1.90;;;;;;;1.80;nan;-23866.03;5013977;28;20294;-70
2023/03/30 01:58:20;;;;;;;3.93;2.03;;;;;;;1.92;nan;-23869.31;5013978;28;20231;-68
2023/03/30 02:00:49;;;;;;;3.00;2.13;;;;;;;1.88;nan;-23868.31;5032788;28;20179;-69
2023/03/30 02:03:27;;;;;;;3.97;2.53;;;;;;;1.74;nan;-23864.47;5033995;28;20197;-69
2023/03/30 02:05:58;;;;;;;5.80;3.13;;;;;;;2.00;nan;-23871.59;5033578;28;20659;-71
2023/03/30 02:08:28;;;;;;;1.70;1.60;;;;;;;1.89;nan;-23868.47;5033469;28;20194;-72
2023/03/30 02:10:57;;;;;;;3.20;2.30;;;;;;;1.88;nan;-23868.16;5033513;28;20183;-71
2023/03/30 02:13:25;;;;;;;2.67;1.90;;;;;;;1.91;nan;-23869.16;5034139;28;20748;-68
2023/03/30 02:15:56;;;;;;;3.50;2.57;;;;;;;1.94;nan;-23869.88;5033036;28;20175;-70
2023/03/30 02:18:22;;;;;;;5.47;2.63;;;;;;;1.86;nan;-23867.59;4798722;28;20913;-70
2023/03/30 02:20:48;;;;;;;2.30;2.10;;;;;;;1.65;nan;-23861.88;4685512;28;21378;-70
2023/03/30 02:23:17;;;;;;;2.53;1.97;;;;;;;1.76;nan;-23865.03;5033486;28;20151;-72
2023/03/30 02:25:43;;;;;;;3.13;2.03;;;;;;;1.81;nan;-23866.16;5032723;28;20179;-71
2023/03/30 02:28:09;;;;;;;2.53;2.33;;;;;;;1.32;nan;-23852.59;5033173;28;20169;-70
2023/03/30 02:30:40;;;;;;;2.93;2.50;;;;;;;1.60;nan;-23860.31;5033083;28;20557;-71
2023/03/30 02:33:08;;;;;;;3.47;2.10;;;;;;;1.58;nan;-23859.75;5033154;28;20194;-67
2023/03/30 02:35:33;;;;;;;3.70;2.80;;;;;;;1.57;nan;-23859.59;5031983;28;20183;-72
2023/03/30 02:38:29;;;;;;;1.97;1.83;;;;;;;1.85;nan;-23867.31;5032535;28;20313;-72
2023/03/30 02:41:19;;;;;;;3.27;2.00;;;;;;;1.78;nan;-23865.59;5032820;28;20179;-70
2023/03/30 02:43:54;;;;;;;3.93;2.50;;;;;;;1.85;nan;-23867.31;5030627;28;20670;-67
2023/03/30 02:46:22;;;;;;;2.23;1.93;;;;;;;1.80;nan;-23866.03;5032493;28;20277;-71
2023/03/30 02:49:13;;;;;;;4.60;2.57;;;;;;;1.22;nan;-23849.72;5031980;28;20190;-68
2023/03/30 02:52:05;;;;;;;3.83;2.30;;;;;;;1.56;nan;-23859.16;5032184;28;20221;-67
2023/03/30 02:55:03;;;;;;;3.77;2.83;;;;;;;1.34;nan;-23853.16;5032421;28;20218;-73
2023/03/30 02:57:38;;;;;;;2.60;2.40;;;;;;;1.10;nan;-23846.31;5029206;28;20642;-69
2023/03/30 03:00:16;;;;;;;3.53;2.27;;;;;;;1.42;nan;-23855.31;5022800;28;20277;-70
2023/03/30 03:02:51;;;;;;;1.87;1.77;;;;;;;1.22;nan;-23849.72;5032182;28;20181;-69
2023/03/30 03:05:17;;;;;;;3.03;2.37;;;;;;;1.19;nan;-23848.75;5032505;28;20660;-68
2023/03/30 03:07:43;;;;;;;4.40;2.63;;;;;;;1.23;nan;-23849.88;5031152;28;20249;-71
2023/03/30 03:10:09;;;;;;;3.63;2.77;;;;;;;1.31;nan;-23852.16;5032281;28;20182;-70
2023/03/30 03:12:35;;;;;;;4.00;2.57;;;;;;;1.20;nan;-23849.16;5031520;28;20186;-69
2023/03/30 03:15:03;;;;;;;2.37;2.17;;;;;;;1.43;nan;-23855.47;5032262;28;20190;-71
2023/03/30 03:17:33;;;;;;;3.37;3.07;;;;;;;0.96;nan;-23842.16;5031831;28;20274;-68
2023/03/30 03:20:00;;;;;;;2.87;2.57;;;;;;;1.37;nan;-23853.88;5031718;28;20559;-68
2023/03/30 03:22:26;;;;;;;2.80;2.20;;;;;;;1.01;nan;-23843.59;5031541;28;20182;-69
2023/03/30 03:24:51;;;;;;;2.90;2.40;;;;;;;1.25;nan;-23850.59;5031515;28;20190;-70
2023/03/30 03:27:17;;;;;;;2.63;2.10;;;;;;;0.82;nan;-23838.28;5031950;28;20642;-68
2023/03/30 03:29:42;;;;;;;2.73;2.20;;;;;;;1.15;nan;-23847.59;5032280;28;20167;-70
2023/03/30 03:32:07;;;;;;;13.03;2.80;;;;;;;1.06;nan;-23845.03;5031780;28;20558;-71
2023/03/30 03:34:33;;;;;;;2.60;2.20;;;;;;;1.08;nan;-23845.72;5031506;28;20183;-70
2023/03/30 03:36:58;;;;;;;2.37;2.17;;;;;;;0.81;nan;-23838.16;5030733;28;20241;-72
2023/03/30 03:39:24;;;;;;;3.17;2.43;;;;;;;0.84;nan;-23839.00;5032244;28;20673;-68
2023/03/30 03:41:50;;;;;;;2.73;2.53;;;;;;;0.82;nan;-23838.44;5032000;28;20295;-71
2023/03/30 03:44:15;;;;;;;3.47;2.63;;;;;;;0.97;nan;-23842.44;5031715;28;20255;-69
2023/03/30 03:46:40;;;;;;;4.27;3.13;;;;;;;0.87;nan;-23839.72;5031741;28;20173;-72
2023/03/30 03:49:06;;;;;;;2.37;2.17;;;;;;;0.59;nan;-23831.84;5030432;28;20177;-69
2023/03/30 03:51:32;;;;;;;4.20;2.30;;;;;;;0.75;nan;-23836.28;5030394;28;20172;-72
2023/03/30 03:53:58;;;;;;;3.27;2.37;;;;;;;0.61;nan;-23832.28;5030706;28;20215;-71
2023/03/30 03:56:24;;;;;;;2.63;2.10;;;;;;;0.51;nan;-23829.44;5031048;28;20228;-70
2023/03/30 03:58:49;;;;;;;5.13;2.87;;;;;;;0.73;nan;-23835.88;5031105;28;20224;-71
2023/03/30 04:01:15;;;;;;;2.20;2.00;;;;;;;0.28;nan;-23822.97;5031256;28;20184;-68
2023/03/30 04:03:41;;;;;;;7.13;3.00;;;;;;;0.57;nan;-23831.28;5031320;28;20180;-71
2023/03/30 04:06:06;;;;;;;2.80;2.50;;;;;;;0.11;nan;-23818.25;5031296;28;20514;-70
2023/03/30 04:08:32;;;;;;;3.10;2.80;;;;;;;0.81;nan;-23838.00;5031813;28;20188;-72
2023/03/30 04:11:06;;;;;;;10.57;2.83;;;;;;;0.67;nan;-23834.16;5031597;28;20177;-70
2023/03/30 04:13:33;;;;;;;4.70;2.83;;;;;;;0.39;nan;-23826.28;5031461;28;20333;-69
2023/03/30 04:15:58;;;;;;;3.87;2.80;;;;;;;0.89;nan;-23840.44;5030846;28;20184;-67
2023/03/30 04:18:23;;;;;;;6.43;3.17;;;;;;;1.08;nan;-23845.72;5029867;28;20200;-71
2023/03/30 04:20:49;;;;;;;2.17;1.97;;;;;;;0.91;nan;-23840.88;5031135;28;20180;-70
2023/03/30 04:23:20;;;;;;;3.10;2.60;;;;;;;1.29;nan;-23851.75;5031188;28;20264;-71
2023/03/30 04:25:45;;;;;;;3.23;2.73;;;;;;;1.33;nan;-23852.75;5029701;28;20632;-72
2023/03/30 04:28:11;;;;;;;16.30;7.90;;;;;;;1.02;nan;-23844.00;5030222;28;20193;-72
2023/03/30 04:30:37;;;;;;;13.10;6.73;;;;;;;1.42;nan;-23855.16;5033753;28;20282;-70
2023/03/30 04:33:03;;;;;;;5.57;3.20;;;;;;;1.58;nan;-23859.88;5035019;28;20161;-68
2023/03/30 04:35:30;;;;;;;2.70;2.50;;;;;;;1.27;nan;-23851.03;5035011;28;20176;-72
2023/03/30 04:37:56;;;;;;;2.80;2.10;;;;;;;1.73;nan;-23864.03;5035141;28;20338;-70
2023/03/30 04:40:22;;;;;;;3.00;2.70;;;;;;;1.80;nan;-23865.88;5035090;28;20228;-73
2023/03/30 04:42:48;;;;;;;8.87;3.77;;;;;;;2.01;nan;-23872.03;5034880;28;20276;-73
2023/03/30 04:45:17;;;;;;;2.97;2.67;;;;;;;2.15;nan;-23876.03;5034828;28;20616;-73
2023/03/30 04:47:43;;;;;;;6.80;3.40;;;;;;;2.28;nan;-23879.59;5034880;28;20275;-73
2023/03/30 04:50:09;;;;;;;3.67;2.90;;;;;;;2.70;nan;-23891.44;5033776;28;20658;-72
2023/03/30 04:52:35;;;;;;;10.87;2.60;;;;;;;2.39;nan;-23882.75;5032893;28;20362;-72
2023/03/30 04:55:00;;;;;;;3.30;2.97;;;;;;;2.42;nan;-23883.59;5034354;28;20254;-72
2023/03/30 04:57:25;;;;;;;3.87;2.63;;;;;;;3.10;nan;-23902.84;5033216;28;20204;-71
2023/03/30 04:59:51;;;;;;;7.13;2.80;;;;;;;3.06;nan;-23901.72;5034443;28;20221;-75
2023/03/30 05:02:16;;;;;;;4.60;3.20;;;;;;;3.02;nan;-23900.56;5034497;28;20189;-75
2023/03/30 05:04:42;;;;;;;5.97;3.50;;;;;;;3.49;nan;-23913.84;5034908;28;20178;-70
2023/03/30 05:07:08;;;;;;;5.23;3.07;;;;;;;3.44;nan;-23912.41;5032908;28;20682;-72
2023/03/30 05:09:33;;;;;;;7.77;3.10;;;;;;;3.98;nan;-23927.66;5033806;28;20189;-75
2023/03/30 05:11:59;;;;;;;5.87;4.37;;;;;;;4.10;nan;-23930.94;5034668;28;20176;-72
2023/03/30 05:14:24;;;;;;;9.10;4.13;;;;;;;4.26;nan;-23935.34;5034003;28;20184;-71
2023/03/30 05:16:50;;;;;;;4.53;3.33;;;;;;;4.13;nan;-23931.78;5034072;28;20288;-70
2023/03/30 05:19:16;;;;;;;5.10;3.73;;;;;;;4.55;nan;-23943.59;5033185;28;20642;-73
2023/03/30 05:21:41;;;;;;;7.00;4.03;;;;;;;4.75;nan;-23949.16;5032830;28;20182;-70
2023/03/30 05:24:07;;;;;;;6.50;3.47;;;;;;;4.99;nan;-23955.84;5034306;28;20186;-72
2023/03/30 05:26:32;;;;;;;10.83;3.67;;;;;;;5.10;nan;-23959.13;5034074;28;20596;-72
2023/03/30 05:28:57;;;;;;;4.80;3.23;;;;;;;5.09;nan;-23958.69;5033766;28;20203;-73
2023/03/30 05:31:23;;;;;;;6.90;3.40;;;;;;;5.38;nan;-23966.78;5032663;28;20187;-72
2023/03/30 05:33:48;;;;;;;6.43;3.93;;;;;;;5.22;nan;-23962.53;5032497;28;20580;-73
2023/03/30 05:36:14;;;;;;;6.90;3.50;;;;;;;5.52;nan;-23970.91;5033360;28;20639;-71
2023/03/30 05:38:40;;;;;;;10.30;4.50;;;;;;;5.81;nan;-23979.00;5034678;28;20205;-72
2023/03/30 05:41:06;;;;;;;8.20;3.80;;;;;;;5.97;nan;-23983.41;5034146;28;20179;-72
2023/03/30 05:43:35;;;;;;;8.80;4.40;;;;;;;5.84;nan;-23979.88;5033728;28;20221;-73
2023/03/30 05:46:01;;;;;;;4.10;3.53;;;;;;;6.23;nan;-23990.81;5033910;28;20618;-74
2023/03/30 05:48:27;;;;;;;5.47;4.13;;;;;;;6.50;nan;-23998.34;5033306;28;20171;-75
2023/03/30 05:50:53;;;;;;;12.23;4.67;;;;;;;6.41;nan;-23995.78;5032010;28;20182;-74
2023/03/30 05:53:20;;;;;;;6.10;4.63;;;;;;;6.96;nan;-24011.25;5034263;28;20174;-74
2023/03/30 05:55:47;;;;;;;9.10;4.80;;;;;;;7.14;nan;-24016.22;5033810;28;20848;-73
2023/03/30 05:58:13;;;;;;;16.97;4.13;;;;;;;7.30;nan;-24020.75;5033205;28;20222;-75
2023/03/30 06:00:40;;;;;;;7.27;4.47;;;;;;;7.49;nan;-24026.28;5032156;28;20559;-72
2023/03/30 06:03:08;;;;;;;13.70;5.43;;;;;;;7.19;nan;-24017.63;5033246;28;20188;-73
2023/03/30 06:05:34;;;;;;;9.47;4.90;;;;;;;7.47;nan;-24025.72;5033295;28;20183;-73
2023/03/30 06:08:00;;;;;;;14.30;4.53;;;;;;;8.04;nan;-24041.44;5031270;28;20186;-73
2023/03/30 06:10:26;;;;;;;7.43;4.60;;;;;;;8.32;nan;-24049.38;5033104;28;20179;-72
2023/03/30 06:12:52;;;;;;;9.53;4.80;;;;;;;8.24;nan;-24047.25;5032799;28;20991;-72
2023/03/30 06:15:17;;;;;;;9.67;4.13;;;;;;;8.62;nan;-24057.72;5033141;28;20203;-73
2023/03/30 06:17:42;;;;;;;5.93;3.37;;;;;;;8.90;nan;-24065.50;5031912;28;20255;-71
2023/03/30 06:20:10;;;;;;;7.00;4.30;;;;;;;9.02;nan;-24069.03;5033235;28;20179;-71
2023/03/30 06:22:35;;;;;;;6.53;3.60;;;;;;;8.34;nan;-24049.94;5032859;28;20187;-73
2023/03/30 06:25:01;;;;;;;4.47;3.53;;;;;;;8.50;nan;-24054.47;5032878;28;20176;-73
2023/03/30 06:27:27;;;;;;;4.93;2.77;;;;;;;8.80;nan;-24062.94;5031814;28;20194;-75
2023/03/30 06:29:52;;;;;;;9.03;3.57;;;;;;;8.90;nan;-24065.66;5033270;28;20209;-73
2023/03/30 06:32:17;;;;;;;10.60;3.10;;;;;;;8.88;nan;-24064.94;5032848;28;20516;-76
2023/03/30 06:34:43;;;;;;;4.90;2.90;;;;;;;9.71;nan;-24088.41;5030840;28;20168;-63
2023/03/30 06:37:09;;;;;;;7.60;2.50;;;;;;;9.63;nan;-24086.00;5032060;28;20210;-61
2023/03/30 06:39:38;;;;;;;3.37;2.73;;;;;;;9.68;nan;-24087.56;5032916;28;20248;-62
2023/03/30 06:42:06;;;;;;;4.43;2.60;;;;;;;9.56;nan;-24084.03;5031632;28;20230;-72
2023/03/30 06:44:33;;;;;;;4.33;2.90;;;;;;;9.82;nan;-24091.22;5032607;28;20267;-64
2023/03/30 06:46:58;;;;;;;2.93;2.23;;;;;;;10.25;nan;-24103.38;5032481;28;20678;-64
2023/03/30 06:49:24;;;;;;;4.27;2.23;;;;;;;10.23;nan;-24102.66;5032272;28;20255;-65
2023/03/30 06:51:49;;;;;;;2.80;2.10;;;;;;;10.08;nan;-24098.56;5032065;28;20708;-62
2023/03/30 06:54:18;;;;;;;2.83;2.23;;;;;;;10.20;nan;-24101.97;5031462;28;20218;-62
2023/03/30 06:56:45;;;;;;;3.87;2.70;;;;;;;10.31;nan;-24105.06;5031453;28;20222;-61
2023/03/30 06:59:12;;;;;;;3.00;2.20;;;;;;;10.10;nan;-24099.13;5032231;28;20175;-61
2023/03/30 07:01:37;;;;;;;3.05;2.30;;;;;;;10.32;nan;-24105.34;5032331;28;20168;-62
2023/03/30 07:04:03;;;;;;;3.70;2.60;;;;;;;10.45;nan;-24109.03;5032305;28;20546;-61
2023/03/30 07:06:28;;;;;;;3.95;2.40;;;;;;;10.37;nan;-24106.63;5032286;28;20175;-65
2023/03/30 07:08:54;;;;;;;2.90;1.90;;;;;;;10.77;nan;-24117.78;5031706;28;20203;-64
2023/03/30 07:11:21;;;;;;;4.20;2.17;;;;;;;10.99;nan;-24124.13;5032204;28;20631;-63
2023/03/30 07:13:46;;;;;;;5.80;2.50;;;;;;;10.89;nan;-24121.28;5032333;28;20167;-64
2023/03/30 07:16:12;;;;;;;3.88;2.83;;;;;;;10.89;nan;-24121.28;5031259;28;20278;-63
2023/03/30 07:18:37;;;;;;;4.28;2.53;;;;;;;10.60;nan;-24113.13;5027903;28;20203;-63
2023/03/30 07:21:03;;;;;;;3.55;2.30;;;;;;;10.82;nan;-24119.31;5032044;28;20258;-61
2023/03/30 07:23:28;;;;;;;5.35;2.38;;;;;;;10.83;nan;-24119.47;5032028;28;20175;-63
2023/03/30 07:25:54;;;;;;;3.33;2.28;;;;;;;10.93;nan;-24122.28;5032061;28;20265;-62
2023/03/30 07:28:20;;;;;;;3.78;2.95;;;;;;;10.81;nan;-24118.91;5031994;28;20590;-63
2023/03/30 07:30:46;;;;;;;2.53;1.95;;;;;;;10.42;nan;-24108.16;5032077;28;20183;-63
2023/03/30 07:33:11;;;;;;;3.00;2.60;;;;;;;11.12;nan;-24127.50;5031516;28;20176;-63
2023/03/30 07:35:43;;;;;;;2.42;2.00;;;;;;;11.25;nan;-24131.31;5031665;28;20210;-61
2023/03/30 07:38:09;;;;;;;3.15;2.17;;;;;;;11.71;nan;-24144.13;5031312;28;20191;-63
2023/03/30 07:40:34;;;;;;;3.45;2.40;;;;;;;11.48;nan;-24137.78;5031827;28;20568;-64
2023/03/30 07:43:00;;;;;;;3.33;2.30;;;;;;;11.47;nan;-24137.50;5031623;28;20577;-62
2023/03/30 07:45:25;;;;;;;4.90;2.38;;;;;;;11.32;nan;-24133.28;5031694;28;20281;-61
2023/03/30 07:47:52;;;;;;;3.05;2.60;;;;;;;11.29;nan;-24132.44;5031994;28;20186;-64
2023/03/30 07:50:17;;;;;;;3.35;2.22;;;;;;;11.47;nan;-24137.34;5030248;28;20168;-63
2023/03/30 07:52:43;;;;;;;3.25;2.60;;;;;;;10.47;nan;-24109.44;5031306;28;20181;-61
2023/03/30 07:55:09;;;;;;;3.60;2.67;;;;;;;10.47;nan;-24109.59;5030783;28;20717;-62
2023/03/30 07:57:35;;;;;;;3.67;2.40;;;;;;;11.30;nan;-24132.72;5031109;28;20234;-63
2023/03/30 08:00:01;;;;;;;2.55;2.00;;;;;;;11.25;nan;-24131.31;5031946;28;20183;-62
2023/03/30 08:02:27;;;;;;;2.15;1.80;;;;;;;11.06;nan;-24125.94;5031509;28;20233;-63
2023/03/30 08:04:52;;;;;;;4.18;2.47;;;;;;;11.60;nan;-24140.88;5030998;28;20182;-63
2023/03/30 08:07:17;;;;;;;2.75;2.25;;;;;;;11.57;nan;-24140.03;5031497;28;20172;-63
2023/03/30 08:09:44;;;;;;;3.40;2.40;;;;;;;11.65;nan;-24142.44;5031653;28;20286;-62
2023/03/30 08:12:10;;;;;;;2.33;2.00;;;;;;;12.05;nan;-24153.41;5032004;28;20211;-61
2023/03/30 08:14:35;;;;;;;6.38;2.10;;;;;;;12.07;nan;-24154.13;5030123;28;20659;-64
2023/03/30 08:17:01;;;;;;;4.68;2.28;;;;;;;11.63;nan;-24141.88;5031301;28;20717;-65
2023/03/30 08:19:27;;;;;;;3.90;2.53;;;;;;;11.42;nan;-24136.09;5031720;28;20167;-61
2023/03/30 08:21:52;;;;;;;3.78;2.65;;;;;;;11.73;nan;-24144.69;5031020;28;20619;-61
2023/03/30 08:24:18;;;;;;;4.25;2.78;;;;;;;12.30;nan;-24160.47;5031203;28;20210;-63
2023/03/30 08:26:43;;;;;;;4.50;2.75;;;;;;;12.10;nan;-24154.97;5031633;28;20182;-64
2023/03/30 08:29:09;;;;;;;4.20;2.70;;;;;;;12.64;nan;-24169.88;5031208;28;20183;-61
2023/03/30 08:31:36;;;;;;;4.65;2.72;;;;;;;11.98;nan;-24151.59;5031202;28;20172;-62
2023/03/30 08:34:03;;;;;;;3.03;2.40;;;;;;;12.43;nan;-24163.97;5031270;28;20179;-62
2023/03/30 08:36:28;;;;;;;2.53;1.90;;;;;;;12.15;nan;-24156.25;5031024;28;20195;-65
2023/03/30 08:38:54;;;;;;;4.38;1.92;;;;;;;12.32;nan;-24161.16;5031137;28;20225;-64
2023/03/30 08:41:28;;;;;;;2.90;2.30;;;;;;;12.71;nan;-24171.84;5031088;28;20167;-65
2023/03/30 08:43:57;;;;;;;3.65;2.15;;;;;;;12.01;nan;-24152.44;5030948;28;20182;-66
2023/03/30 08:46:23;;;;;;;4.22;2.25;;;;;;;12.47;nan;-24165.09;5031248;28;20226;-63
2023/03/30 08:48:51;;;;;;;3.25;2.28;;;;;;;13.18;nan;-24185.06;5030649;28;20178;-66
2023/03/30 08:51:23;;;;;;;4.45;2.00;;;;;;;13.03;nan;-24180.84;5030687;28;20171;-65
2023/03/30 08:54:05;;;;;;;3.60;2.25;;;;;;;13.16;nan;-24184.50;5031148;28;20237;-64
2023/03/30 08:57:15;;;;;;;2.13;1.70;;;;;;;13.09;nan;-24182.53;5030636;28;20675;-65
2023/03/30 09:00:06;;;;;;;2.72;1.80;;;;;;;12.73;nan;-24172.41;5030842;28;20183;-63
2023/03/30 09:02:35;;;;;;;2.85;1.92;;;;;;;12.61;nan;-24169.03;5030971;28;20176;-64
2023/03/30 09:05:23;;;;;;;2.95;1.98;;;;;;;12.68;nan;-24171.00;5030965;28;20258;-64
2023/03/30 09:08:03;;;;;;;2.78;1.80;;;;;;;12.92;nan;-24177.63;5031075;28;20172;-65
2023/03/30 09:10:35;;;;;;;1.95;1.77;;;;;;;13.19;nan;-24185.34;5030964;28;20183;-66
2023/03/30 09:13:04;;;;;;;2.28;1.83;;;;;;;13.21;nan;-24185.78;5030815;28;20259;-67
2023/03/30 09:15:35;;;;;;;2.15;1.92;;;;;;;13.42;nan;-24191.53;5030872;28;20206;-65
2023/03/30 09:18:09;;;;;;;3.17;1.90;;;;;;;13.39;nan;-24190.69;5034085;28;20195;-65
2023/03/30 09:20:39;;;;;;;2.00;1.80;;;;;;;13.45;nan;-24192.53;5034436;28;20163;-66
2023/03/30 09:23:10;;;;;;;4.00;2.17;;;;;;;13.27;nan;-24187.59;4593731;28;21108;-67
2023/03/30 09:26:01;;;;;;;3.05;1.90;;;;;;;13.57;nan;-24195.75;4325779;28;20969;-64
2023/03/30 09:28:26;;;;;;;2.75;1.73;;;;;;;13.55;nan;-24195.31;5034303;28;20202;-65
2023/03/30 09:31:00;;;;;;;1.63;1.50;;;;;;;13.38;nan;-24190.41;5033758;28;20206;-64
2023/03/30 09:33:35;;;;;;;2.00;1.60;;;;;;;13.19;nan;-24185.22;5034182;28;20168;-67
2023/03/30 09:36:20;;;;;;;2.88;2.03;;;;;;;13.31;nan;-24188.59;5032458;28;20167;-64
2023/03/30 09:38:45;;;;;;;1.80;1.70;;;;;;;13.17;nan;-24184.66;5033596;28;20377;-64
2023/03/30 09:41:47;;;;;;;2.72;1.70;;;;;;;13.53;nan;-24194.75;5032987;28;20251;-68
2023/03/30 09:44:43;;;;;;;1.80;1.50;;;;;;;13.55;nan;-24195.31;5033459;28;20159;-66
2023/03/30 09:47:24;;;;;;;1.65;1.42;;;;;;;13.08;nan;-24182.13;5032483;28;20195;-65
2023/03/30 09:49:57;;;;;;;2.72;1.92;;;;;;;12.70;nan;-24171.72;5032977;28;20163;-64
2023/03/30 09:52:25;;;;;;;2.45;1.60;;;;;;;12.98;nan;-24179.44;5033603;28;20202;-66
2023/03/30 09:54:51;;;;;;;2.90;2.05;;;;;;;13.58;nan;-24196.03;5033218;28;20179;-67
2023/03/30 09:57:34;;;;;;;2.63;1.80;;;;;;;13.12;nan;-24183.25;5032194;28;20599;-66
2023/03/30 10:00:00;;;;;;;1.52;1.42;;;;;;;13.73;nan;-24200.09;5029434;28;20556;-65
2023/03/30 10:02:30;;;;;;;2.00;1.65;;;;;;;13.50;nan;-24193.78;5033051;28;20730;-67
2023/03/30 10:05:01;;;;;;;2.47;1.80;;;;;;;14.34;nan;-24217.22;5032616;28;20179;-67
2023/03/30 10:07:39;;;;;;;3.83;1.83;;;;;;;14.32;nan;-24216.50;5031372;28;20573;-64
2023/03/30 10:10:25;;;;;;;2.13;1.70;;;;;;;13.83;nan;-24202.91;5033511;28;20210;-66
2023/03/30 10:13:01;;;;;;;1.77;1.67;;;;;;;14.27;nan;-24215.25;5033229;28;20266;-64
2023/03/30 10:15:30;;;;;;;4.03;2.45;;;;;;;14.01;nan;-24207.97;5033448;28;20199;-66
2023/03/30 10:18:00;;;;;;;3.35;1.98;;;;;;;14.39;nan;-24218.47;5031849;28;20686;-67
2023/03/30 10:20:29;;;;;;;3.67;2.10;;;;;;;14.48;nan;-24221.16;5033445;28;20521;-68
2023/03/30 10:23:17;;;;;;;2.95;1.88;;;;;;;14.76;nan;-24228.84;5033068;28;20526;-65
2023/03/30 10:25:45;;;;;;;3.53;2.22;;;;;;;14.52;nan;-24222.13;5032951;28;20241;-68
2023/03/30 10:28:20;;;;;;;2.13;1.67;;;;;;;14.34;nan;-24217.06;5032561;28;20171;-65
2023/03/30 10:31:15;;;;;;;1.98;1.73;;;;;;;14.48;nan;-24221.00;5032542;28;20740;-66
2023/03/30 10:33:43;;;;;;;2.70;1.90;;;;;;;14.87;nan;-24231.81;5032548;28;20159;-65
2023/03/30 10:36:10;;;;;;;2.15;1.92;;;;;;;14.94;nan;-24233.91;5032950;28;20206;-64
2023/03/30 10:38:38;;;;;;;4.78;1.75;;;;;;;14.59;nan;-24224.09;5032771;28;20191;-63
2023/03/30 10:41:10;;;;;;;2.05;1.67;;;;;;;14.71;nan;-24227.47;5032522;28;20646;-64
2023/03/30 10:43:37;;;;;;;2.28;1.90;;;;;;;15.02;nan;-24236.16;5032391;28;20765;-64
2023/03/30 10:46:12;;;;;;;1.67;1.58;;;;;;;14.73;nan;-24227.88;5032588;28;20194;-65
2023/03/30 10:48:41;;;;;;;2.40;1.80;;;;;;;14.92;nan;-24233.22;5032713;28;20178;-64
2023/03/30 10:51:38;;;;;;;2.53;1.90;;;;;;;14.96;nan;-24234.47;5032539;28;20237;-66
2023/03/30 10:54:24;;;;;;;2.22;2.03;;;;;;;15.17;nan;-24240.22;5031468;28;20190;-63
2023/03/30 10:57:07;;;;;;;2.15;1.80;;;;;;;15.33;nan;-24244.56;5031938;28;20238;-63
2023/03/30 10:59:35;;;;;;;2.47;2.13;;;;;;;15.36;nan;-24245.38;5032937;28;20198;-66
2023/03/30 11:02:25;;;;;;;2.78;1.88;;;;;;;15.51;nan;-24249.59;5031731;28;20194;-66
2023/03/30 11:05:21;;;;;;;2.15;1.80;;;;;;;15.47;nan;-24248.47;5032508;28;20550;-66
2023/03/30 11:07:55;;;;;;;1.85;1.65;;;;;;;15.38;nan;-24245.94;5031753;28;20191;-63
2023/03/30 11:10:30;;;;;;;1.95;1.75;;;;;;;15.38;nan;-24245.94;5032706;28;20170;-63
2023/03/30 11:13:11;;;;;;;4.22;1.90;;;;;;;15.70;nan;-24254.91;5031271;28;20573;-63
2023/03/30 11:15:43;;;;;;;1.70;1.60;;;;;;;15.96;nan;-24262.06;5031683;28;20253;-63
2023/03/30 11:18:16;;;;;;;2.42;1.85;;;;;;;15.91;nan;-24260.78;5032118;28;20200;-63
2023/03/30 11:20:59;;;;;;;1.70;1.60;;;;;;;15.48;nan;-24248.75;5030809;28;20352;-65
2023/03/30 11:23:43;;;;;;;2.05;1.50;;;;;;;15.51;nan;-24249.59;5031867;28;20164;-63
2023/03/30 11:26:22;;;;;;;1.40;1.30;;;;;;;15.69;nan;-24254.50;5032019;28;20206;-62
2023/03/30 11:28:58;;;;;;;1.70;1.60;;;;;;;15.87;nan;-24259.66;5030221;28;20178;-65
2023/03/30 11:31:28;;;;;;;1.60;1.50;;;;;;;15.93;nan;-24261.06;5031661;28;20175;-63
2023/03/30 11:34:02;;;;;;;2.50;1.70;;;;;;;15.66;nan;-24253.78;5030366;28;20175;-66
2023/03/30 11:36:40;;;;;;;1.60;1.50;;;;;;;15.14;nan;-24239.38;5031333;28;20167;-65
2023/03/30 11:39:12;;;;;;;2.10;1.50;;;;;;;15.68;nan;-24254.34;5030712;28;20286;-62
2023/03/30 11:41:47;;;;;;;1.40;1.30;;;;;;;16.10;nan;-24265.81;5029916;28;20179;-64
2023/03/30 11:44:12;;;;;;;1.88;1.50;;;;;;;16.41;nan;-24274.34;5031537;28;20593;-64
2023/03/30 11:47:00;;;;;;;1.20;1.10;;;;;;;16.35;nan;-24272.81;5030942;28;20171;-65
2023/03/30 11:49:29;;;;;;;1.40;1.20;;;;;;;16.13;nan;-24266.66;5031656;28;20160;-64
2023/03/30 11:52:00;;;;;;;1.65;1.55;;;;;;;16.23;nan;-24269.59;5031349;28;20170;-65
2023/03/30 11:54:51;;;;;;;1.67;1.33;;;;;;;16.25;nan;-24270.03;5031341;28;20221;-63
2023/03/30 11:57:39;;;;;;;1.70;1.30;;;;;;;16.42;nan;-24274.78;5031885;28;20238;-61
2023/03/30 12:00:34;;;;;;;1.80;1.40;;;;;;;16.41;nan;-24274.50;5031511;28;20269;-61
2023/03/30 12:03:12;;;;;;;2.75;1.60;;;;;;;16.28;nan;-24270.84;5032052;28;20163;-63